createdAt,value
2019-05-29T00:02:49.642Z,98854.31
2019-05-29T00:12:50.352Z,98866.61
2019-05-29T00:22:51.059Z,98883.70
2019-05-29T00:32:51.876Z,98892.72
2019-05-29T00:42:52.539Z,98907.49
2019-05-29T00:52:53.263Z,98908.52
2019-05-29T01:02:53.994Z,98917.20
2019-05-29T01:12:54.861Z,98930.52
2019-05-29T01:22:55.568Z,98936.98
2019-05-29T01:32:56.233Z,98946.37
2019-05-29T01:42:56.959Z,98950.09
2019-05-29T01:52:57.640Z,98965.21
2019-05-29T02:02:58.545Z,98967.84
2019-05-29T02:12:59.197Z,98980.56
2019-05-29T02:22:59.900Z,98997.39
2019-05-29T02:33:00.573Z,99009.78
2019-05-29T02:43:01.350Z,99017.52
2019-05-29T02:53:02.117Z,99025.73
2019-05-29T03:03:02.927Z,99035.29
2019-05-29T03:13:04.814Z,99048.19
2019-05-29T03:23:05.696Z,99063.59
2019-05-29T03:33:06.485Z,99082.50
2019-05-29T03:43:07.158Z,99102.31
2019-05-29T03:53:07.947Z,99111.96
2019-05-29T04:03:08.702Z,99123.00
2019-05-29T04:13:09.377Z,99131.50
2019-05-29T04:23:10.134Z,99146.66
2019-05-29T04:33:11.143Z,99158.20
2019-05-29T04:43:11.782Z,99170.62
2019-05-29T04:53:15.475Z,99180.25
2019-05-29T05:03:17.146Z,99189.81
2019-05-29T05:13:18.426Z,99206.82
2019-05-29T05:23:19.133Z,99219.92
2019-05-29T05:33:19.916Z,99232.17
2019-05-29T05:43:24.088Z,99248.59
2019-05-29T05:53:23.252Z,99253.91
2019-05-29T06:03:25.988Z,99266.47
2019-05-29T06:13:30.663Z,99283.55
2019-05-29T06:23:32.695Z,99298.59
2019-05-29T06:33:33.539Z,99305.78
2019-05-29T06:43:34.222Z,99312.16
2019-05-29T06:53:35.706Z,99320.40
2019-05-29T07:03:37.655Z,99325.70
2019-05-29T07:13:41.783Z,99337.61
2019-05-29T07:23:41.301Z,99350.28
2019-05-29T07:33:43.175Z,99358.33
2019-05-29T07:43:44.077Z,99377.18
2019-05-29T07:53:44.774Z,99374.92
2019-05-29T08:03:45.529Z,99387.48
2019-05-29T08:13:46.187Z,99394.84
2019-05-29T08:23:48.575Z,99401.93
2019-05-29T08:33:49.304Z,99400.79
2019-05-29T08:43:50.776Z,99404.70
2019-05-29T08:53:52.486Z,99401.13
2019-05-29T09:03:54.303Z,99413.37
2019-05-29T09:13:54.997Z,99416.07
2019-05-29T09:23:58.828Z,99418.29
2019-05-29T09:33:59.822Z,99432.38
2019-05-29T09:44:00.511Z,99427.89
2019-05-29T09:54:03.460Z,99434.82
2019-05-29T10:04:06.203Z,99447.75
2019-05-29T10:14:06.950Z,99451.80
2019-05-29T10:24:11.619Z,99461.58
2019-05-29T10:34:17.494Z,99463.30
2019-05-29T10:44:18.191Z,99468.16
2019-05-29T10:54:28.151Z,99468.13
2019-05-29T11:04:30.925Z,99455.42
2019-05-29T11:14:34.275Z,99464.50
2019-05-29T11:24:34.906Z,99456.98
2019-05-29T11:34:35.626Z,99456.59
2019-05-29T11:44:36.604Z,99449.55
2019-05-29T11:54:55.595Z,99461.19
2019-05-29T12:05:06.251Z,99459.67
2019-05-29T12:15:14.265Z,99458.95
2019-05-29T12:25:11.604Z,99461.47
2019-05-29T12:35:18.183Z,99452.23
2019-05-29T12:45:20.999Z,99455.02
2019-05-29T12:55:22.748Z,99451.10
2019-05-29T13:05:24.828Z,99445.34
2019-05-29T13:15:25.714Z,99451.34
2019-05-29T13:25:26.387Z,99451.55
2019-05-29T13:35:29.141Z,99448.44
2019-05-29T13:45:30.762Z,99445.52
2019-05-29T13:55:33.250Z,99444.16
2019-05-29T14:05:35.906Z,99436.34
2019-05-29T14:15:36.650Z,99440.73
2019-05-29T14:25:37.345Z,99439.31
2019-05-29T14:35:39.098Z,99437.65
2019-05-29T14:45:39.764Z,99428.73
2019-05-29T14:55:40.486Z,99443.40
2019-05-29T15:05:41.134Z,99434.14
2019-05-29T15:15:42.829Z,99444.72
2019-05-29T15:25:43.505Z,99440.95
2019-05-29T15:35:45.236Z,99438.75
2019-05-29T15:45:45.910Z,99440.83
2019-05-29T15:55:46.807Z,99436.95
2019-05-29T16:05:47.564Z,99429.61
2019-05-29T16:15:51.297Z,99439.59
2019-05-29T16:25:53.146Z,99436.15
2019-05-29T16:35:53.815Z,99432.18
2019-05-29T16:45:54.602Z,99435.03
2019-05-29T16:55:55.282Z,99441.58
2019-05-29T17:05:56.041Z,99441.40
2019-05-29T17:15:56.712Z,99452.25
2019-05-29T17:26:10.209Z,99450.95
2019-05-29T17:36:00.024Z,99451.00
2019-05-29T17:46:00.873Z,99454.75
2019-05-29T17:56:01.611Z,99458.14
2019-05-29T18:06:02.549Z,99464.55
2019-05-29T18:16:03.227Z,99467.67
2019-05-29T18:26:03.901Z,99471.03
2019-05-29T18:36:04.580Z,99473.69
2019-05-29T18:46:05.263Z,99476.30
2019-05-29T18:56:05.932Z,99481.83
2019-05-29T19:06:07.644Z,99488.89
2019-05-29T19:16:08.435Z,99496.88
2019-05-29T19:26:09.259Z,99506.36
2019-05-29T19:36:09.998Z,99519.47
2019-05-29T19:46:10.787Z,99532.15
2019-05-29T19:56:11.593Z,99542.98
2019-05-29T20:06:12.349Z,99551.79
2019-05-29T20:16:13.017Z,99565.47
2019-05-29T20:26:13.706Z,99576.53
2019-05-29T20:36:15.394Z,99577.70
2019-05-29T20:46:19.105Z,99586.27
2019-05-29T20:56:19.773Z,99582.25
2019-05-29T21:06:22.429Z,99592.05
2019-05-29T21:16:23.294Z,99596.64
2019-05-29T21:26:24.092Z,99605.66
2019-05-29T21:36:24.904Z,99615.48
2019-05-29T21:46:26.594Z,99617.29
2019-05-29T21:56:27.276Z,99619.05
2019-05-29T22:06:28.156Z,99627.30
2019-05-29T22:16:29.052Z,99640.38
2019-05-29T22:26:29.749Z,99641.03
2019-05-29T22:36:30.614Z,99628.63
2019-05-29T22:46:31.358Z,99624.61
2019-05-29T22:56:33.081Z,99639.38
2019-05-29T23:06:33.859Z,99651.28
2019-05-29T23:16:34.619Z,99641.36
2019-05-29T23:26:35.341Z,99638.08
2019-05-29T23:36:36.116Z,99629.59
2019-05-29T23:46:36.841Z,99633.00
2019-05-29T23:56:37.516Z,99622.48
